createdAt,value
2022-11-28T04:58:17.039Z,100.00
2022-11-28T05:01:27.439Z,100.00
2022-11-28T05:04:30.351Z,100.00
2022-11-28T05:07:33.070Z,100.00
2022-11-28T05:10:41.711Z,100.00
2022-11-28T05:13:44.881Z,100.00
2022-11-28T05:16:48.196Z,100.00
2022-11-28T05:19:51.038Z,100.00
2022-11-28T05:22:53.542Z,100.00
2022-11-28T05:25:56.305Z,100.00
2022-11-28T05:28:58.923Z,100.00
2022-11-28T05:32:01.993Z,100.00
2022-11-28T05:35:05.250Z,100.00
2022-11-28T05:38:13.268Z,100.00
2022-11-28T05:41:20.276Z,100.00
2022-11-28T05:44:26.854Z,100.00
2022-11-28T05:47:32.251Z,100.00
2022-11-28T05:50:41.800Z,100.00
2022-11-28T05:53:44.338Z,100.00
2022-11-28T05:56:47.810Z,100.00
2022-11-28T05:59:50.342Z,100.00
2022-11-28T06:02:57.089Z,100.00
2022-11-28T06:06:02.783Z,100.00
2022-11-28T06:09:06.161Z,100.00
2022-11-28T06:12:09.481Z,100.00
2022-11-28T06:15:11.975Z,100.00
2022-11-28T06:18:14.780Z,100.00
2022-11-28T06:21:17.370Z,100.00
2022-11-28T06:24:20.136Z,100.00
2022-11-28T06:27:22.698Z,100.00
2022-11-28T06:30:25.721Z,100.00
2022-11-28T06:33:28.830Z,100.00
2022-11-28T06:36:31.566Z,100.00
2022-11-28T06:39:34.055Z,100.00
2022-11-28T06:42:37.451Z,100.00
2022-11-28T06:45:39.990Z,100.00
2022-11-28T06:48:42.787Z,100.00
2022-11-28T06:51:46.050Z,100.00
2022-11-28T06:54:48.798Z,100.00
2022-11-28T06:57:51.315Z,100.00
2022-11-28T07:00:54.240Z,100.00
2022-11-28T07:03:57.510Z,100.00
2022-11-28T07:07:00.406Z,100.00
2022-11-28T07:10:03.296Z,100.00
2022-11-28T07:13:06.166Z,100.00
2022-11-28T07:16:14.440Z,100.00
2022-11-28T07:19:22.722Z,100.00
2022-11-28T07:22:25.297Z,100.00
2022-11-28T07:25:28.107Z,100.00
2022-11-28T07:28:32.070Z,100.00
2022-11-28T07:31:37.092Z,100.00
2022-11-28T07:34:41.331Z,100.00
2022-11-28T07:37:44.239Z,100.00
2022-11-28T07:40:47.413Z,100.00
2022-11-28T07:44:00.114Z,100.00
2022-11-28T07:47:03.104Z,100.00
2022-11-28T07:50:06.756Z,100.00
2022-11-28T07:53:09.510Z,100.00
2022-11-28T07:56:15.420Z,100.00
2022-11-28T07:59:18.097Z,100.00
2022-11-28T08:02:20.859Z,100.00
2022-11-28T08:05:23.681Z,100.00
2022-11-28T08:08:26.601Z,100.00
2022-11-28T08:11:30.721Z,100.00
2022-11-28T08:14:33.400Z,100.00
2022-11-28T08:17:36.291Z,100.00
2022-11-28T08:20:38.894Z,100.00
2022-11-28T08:23:42.365Z,100.00
2022-11-28T08:26:44.814Z,100.00
2022-11-28T08:29:51.937Z,100.00
2022-11-28T08:32:56.152Z,100.00
2022-11-28T08:35:59.050Z,100.00
2022-11-28T08:39:22.377Z,100.00
2022-11-28T08:42:28.177Z,100.00
2022-11-28T08:45:31.086Z,100.00
2022-11-28T08:48:35.304Z,100.00
2022-11-28T08:51:37.914Z,99.00
2022-11-28T08:54:41.829Z,99.43
2022-11-28T08:57:44.467Z,99.95
2022-11-28T09:00:48.877Z,98.08
2022-11-28T09:03:52.324Z,98.21
2022-11-28T09:06:56.311Z,98.21
2022-11-28T09:09:58.871Z,100.00
2022-11-28T09:13:01.863Z,100.00
2022-11-28T09:16:05.193Z,100.00
2022-11-28T09:19:09.408Z,100.00
2022-11-28T09:22:12.424Z,100.00
2022-11-28T09:25:16.594Z,100.00
2022-11-28T09:28:19.400Z,100.00
2022-11-28T09:31:22.739Z,100.00
2022-11-28T09:34:25.407Z,100.00
2022-11-28T09:37:29.450Z,100.00
2022-11-28T09:40:41.985Z,100.00
2022-11-28T09:43:46.992Z,98.69
2022-11-28T09:46:55.766Z,98.43
2022-11-28T09:50:03.705Z,99.32
2022-11-28T09:53:28.371Z,98.98
2022-11-28T09:56:31.444Z,100.00
2022-11-28T09:59:35.715Z,100.00
2022-11-28T10:02:52.676Z,100.00
2022-11-28T10:06:13.120Z,100.00
2022-11-28T10:09:53.175Z,100.00
2022-11-28T10:13:13.964Z,100.00
2022-11-28T10:16:33.082Z,100.00
2022-11-28T10:19:58.280Z,100.00
2022-11-28T10:23:07.525Z,100.00
2022-11-28T10:26:39.065Z,100.00
2022-11-28T10:29:56.554Z,100.00
2022-11-28T10:33:23.785Z,100.00
2022-11-28T10:36:47.692Z,100.00
2022-11-28T10:39:50.986Z,100.00
2022-11-28T10:43:01.126Z,100.00
2022-11-28T10:46:13.060Z,100.00
2022-11-28T10:50:02.138Z,99.18
2022-11-28T10:53:17.626Z,98.94
2022-11-28T10:56:34.284Z,100.00
2022-11-28T11:00:13.143Z,100.00
2022-11-28T11:03:18.175Z,100.00
2022-11-28T11:06:20.889Z,100.00
2022-11-28T11:09:23.403Z,100.00
2022-11-28T11:12:30.599Z,100.00
2022-11-28T11:15:36.095Z,100.00
2022-11-28T11:18:45.706Z,100.00
2022-11-28T11:22:18.998Z,100.00
2022-11-28T11:25:23.161Z,100.00
2022-11-28T11:28:47.943Z,100.00
2022-11-28T11:31:53.390Z,100.00
2022-11-28T11:34:58.462Z,97.58
2022-11-28T11:38:20.129Z,98.48
2022-11-28T11:41:31.087Z,94.62
2022-11-28T11:44:34.866Z,96.62
2022-11-28T11:47:44.508Z,94.80
2022-11-28T11:50:54.109Z,96.78
2022-11-28T11:54:20.870Z,97.90
2022-11-28T11:57:35.381Z,98.15
2022-11-28T12:00:39.955Z,98.62
2022-11-28T12:03:55.152Z,98.31
2022-11-28T12:07:02.178Z,98.28
2022-11-28T12:10:11.320Z,97.74
2022-11-28T12:13:24.195Z,96.94
2022-11-28T12:16:46.591Z,97.50
2022-11-28T12:20:10.435Z,97.96
2022-11-28T12:23:39.420Z,95.81
2022-11-28T12:26:47.935Z,98.60
2022-11-28T12:30:19.466Z,99.04
2022-11-28T12:33:43.260Z,100.00
2022-11-28T12:37:13.406Z,100.00
2022-11-28T12:40:36.008Z,100.00
2022-11-28T12:43:46.542Z,100.00
2022-11-28T12:47:21.363Z,100.00
2022-11-28T12:50:39.543Z,100.00
2022-11-28T12:54:12.825Z,100.00
2022-11-28T12:57:26.273Z,100.00
2022-11-28T13:00:29.315Z,100.00
2022-11-28T13:03:41.553Z,100.00
2022-11-28T13:07:11.717Z,100.00
2022-11-28T13:10:36.400Z,100.00
2022-11-28T13:13:42.714Z,100.00
2022-11-28T13:16:52.393Z,100.00
2022-11-28T13:20:00.737Z,100.00
2022-11-28T13:23:16.419Z,100.00
2022-11-28T13:26:25.923Z,100.00
2022-11-28T13:29:28.941Z,100.00
2022-11-28T13:32:44.841Z,100.00
2022-11-28T13:35:47.842Z,100.00
2022-11-28T13:39:13.069Z,100.00
2022-11-28T13:42:52.371Z,100.00
2022-11-28T13:45:43.675Z,100.00
2022-11-28T13:52:20.677Z,100.00
2022-11-28T13:55:47.025Z,100.00
2022-11-28T13:58:52.887Z,100.00
2022-11-28T14:01:59.817Z,100.00
2022-11-28T14:05:04.643Z,100.00
2022-11-28T14:08:07.726Z,100.00
2022-11-28T14:11:43.688Z,100.00
2022-11-28T14:15:06.611Z,100.00
2022-11-28T14:21:59.049Z,100.00
2022-11-28T14:25:19.600Z,100.00
2022-11-28T14:28:26.405Z,100.00
2022-11-28T14:32:06.565Z,100.00
2022-11-28T14:35:18.042Z,100.00
2022-11-28T14:38:30.440Z,100.00
2022-11-28T14:41:54.204Z,100.00
2022-11-28T14:45:08.202Z,100.00
2022-11-28T14:48:19.781Z,100.00
2022-11-28T14:52:15.774Z,100.00
2022-11-28T14:55:21.545Z,100.00
2022-11-28T14:58:24.406Z,100.00
2022-11-28T15:01:34.413Z,100.00
2022-11-28T15:04:37.159Z,100.00
2022-11-28T15:08:01.738Z,100.00
2022-11-28T15:11:42.926Z,100.00
2022-11-28T15:14:53.433Z,100.00
2022-11-28T15:18:00.556Z,100.00
2022-11-28T15:21:11.714Z,100.00
2022-11-28T15:24:27.468Z,100.00
2022-11-28T15:27:30.498Z,100.00
2022-11-28T15:30:33.541Z,100.00
2022-11-28T15:33:36.094Z,100.00
2022-11-28T15:36:39.472Z,100.00
2022-11-28T15:39:45.432Z,100.00
2022-11-28T15:42:49.519Z,100.00
2022-11-28T15:45:55.025Z,100.00
2022-11-28T15:48:58.390Z,100.00
2022-11-28T15:52:05.115Z,100.00
2022-11-28T15:55:18.081Z,100.00
2022-11-28T15:58:23.544Z,100.00
2022-11-28T16:01:28.150Z,100.00
2022-11-28T16:04:32.344Z,100.00
2022-11-28T16:07:40.888Z,100.00
2022-11-28T16:10:44.709Z,100.00
2022-11-28T16:13:48.158Z,100.00
2022-11-28T16:16:51.247Z,100.00
2022-11-28T16:19:55.698Z,100.00
2022-11-28T16:23:00.251Z,100.00
2022-11-28T16:26:33.959Z,100.00
2022-11-28T16:29:36.882Z,100.00
2022-11-28T16:32:40.660Z,100.00
2022-11-28T16:35:43.611Z,100.00
2022-11-28T16:38:48.316Z,100.00
2022-11-28T16:42:16.642Z,100.00
2022-11-28T16:45:24.664Z,100.00
2022-11-28T16:48:32.408Z,100.00
2022-11-28T16:51:40.124Z,100.00
2022-11-28T16:54:42.886Z,100.00
